sensor_id;sensor_type;location;lat;lon;timestamp;temperature;humidity
39815;DHT22;25495;45.948;4.568;2022-10-16T00:01:51;17.00;99.90
39815;DHT22;25495;45.948;4.568;2022-10-16T00:04:17;17.20;99.90
39815;DHT22;25495;45.948;4.568;2022-10-16T00:06:43;17.20;99.90
39815;DHT22;25495;45.948;4.568;2022-10-16T00:09:09;17.20;99.90
39815;DHT22;25495;45.948;4.568;2022-10-16T00:11:37;17.10;99.90
39815;DHT22;25495;45.948;4.568;2022-10-16T00:14:06;17.20;99.90
39815;DHT22;25495;45.948;4.568;2022-10-16T00:16:32;17.50;99.90
39815;DHT22;25495;45.948;4.568;2022-10-16T00:18:59;17.50;99.90
39815;DHT22;25495;45.948;4.568;2022-10-16T00:21:27;17.40;99.90
39815;DHT22;25495;45.948;4.568;2022-10-16T00:24:01;17.30;99.90
39815;DHT22;25495;45.948;4.568;2022-10-16T00:26:29;17.20;99.90
39815;DHT22;25495;45.948;4.568;2022-10-16T00:28:55;17.10;99.90
39815;DHT22;25495;45.948;4.568;2022-10-16T00:31:22;17.10;99.90
39815;DHT22;25495;45.948;4.568;2022-10-16T00:33:48;17.10;99.90
39815;DHT22;25495;45.948;4.568;2022-10-16T00:36:17;17.10;99.90
39815;DHT22;25495;45.948;4.568;2022-10-16T00:38:43;17.20;99.90
39815;DHT22;25495;45.948;4.568;2022-10-16T00:41:17;17.20;99.90
39815;DHT22;25495;45.948;4.568;2022-10-16T00:43:44;17.10;99.90
39815;DHT22;25495;45.948;4.568;2022-10-16T00:46:17;17.20;99.90
39815;DHT22;25495;45.948;4.568;2022-10-16T00:48:50;17.20;99.90
39815;DHT22;25495;45.948;4.568;2022-10-16T00:51:21;17.20;99.90
39815;DHT22;25495;45.948;4.568;2022-10-16T00:53:49;17.30;99.90
39815;DHT22;25495;45.948;4.568;2022-10-16T00:56:15;17.30;99.90
39815;DHT22;25495;45.948;4.568;2022-10-16T00:58:41;17.30;99.90
39815;DHT22;25495;45.948;4.568;2022-10-16T01:01:07;17.20;99.90
39815;DHT22;25495;45.948;4.568;2022-10-16T01:03:35;17.20;99.90
39815;DHT22;25495;45.948;4.568;2022-10-16T01:06:23;17.30;99.90
39815;DHT22;25495;45.948;4.568;2022-10-16T01:12:13;17.40;99.90
39815;DHT22;25495;45.948;4.568;2022-10-16T01:14:53;17.30;99.90
39815;DHT22;25495;45.948;4.568;2022-10-16T01:17:34;17.20;99.90
39815;DHT22;25495;45.948;4.568;2022-10-16T01:23:04;17.10;99.90
39815;DHT22;25495;45.948;4.568;2022-10-16T01:28:36;17.20;99.90
39815;DHT22;25495;45.948;4.568;2022-10-16T01:31:04;17.10;99.90
39815;DHT22;25495;45.948;4.568;2022-10-16T01:33:36;16.90;99.90
39815;DHT22;25495;45.948;4.568;2022-10-16T01:36:16;17.10;99.90
39815;DHT22;25495;45.948;4.568;2022-10-16T01:38:45;17.30;99.90
39815;DHT22;25495;45.948;4.568;2022-10-16T01:41:18;17.30;99.90
39815;DHT22;25495;45.948;4.568;2022-10-16T01:44:11;17.30;99.90
39815;DHT22;25495;45.948;4.568;2022-10-16T01:46:42;17.20;99.90
39815;DHT22;25495;45.948;4.568;2022-10-16T01:49:09;17.20;99.90
39815;DHT22;25495;45.948;4.568;2022-10-16T01:51:37;17.20;99.90
39815;DHT22;25495;45.948;4.568;2022-10-16T01:54:05;17.30;99.90
39815;DHT22;25495;45.948;4.568;2022-10-16T01:56:32;17.10;99.90
39815;DHT22;25495;45.948;4.568;2022-10-16T01:59:03;17.10;99.90
39815;DHT22;25495;45.948;4.568;2022-10-16T02:01:32;17.10;99.90
39815;DHT22;25495;45.948;4.568;2022-10-16T02:04:07;17.10;99.90
39815;DHT22;25495;45.948;4.568;2022-10-16T02:06:33;17.00;99.90
39815;DHT22;25495;45.948;4.568;2022-10-16T02:09:00;16.70;99.90
39815;DHT22;25495;45.948;4.568;2022-10-16T02:11:26;16.70;99.90
39815;DHT22;25495;45.948;4.568;2022-10-16T02:13:58;16.20;99.90
39815;DHT22;25495;45.948;4.568;2022-10-16T02:16:38;15.90;99.90
39815;DHT22;25495;45.948;4.568;2022-10-16T02:19:05;15.90;99.90
39815;DHT22;25495;45.948;4.568;2022-10-16T02:21:50;16.00;99.90
39815;DHT22;25495;45.948;4.568;2022-10-16T02:29:52;15.80;99.90
39815;DHT22;25495;45.948;4.568;2022-10-16T02:32:25;16.00;99.90
39815;DHT22;25495;45.948;4.568;2022-10-16T02:34:56;16.00;99.90
39815;DHT22;25495;45.948;4.568;2022-10-16T02:39:51;16.20;99.90
39815;DHT22;25495;45.948;4.568;2022-10-16T02:42:18;16.30;99.90
39815;DHT22;25495;45.948;4.568;2022-10-16T02:44:44;16.40;99.90
39815;DHT22;25495;45.948;4.568;2022-10-16T02:47:09;16.60;99.90
39815;DHT22;25495;45.948;4.568;2022-10-16T02:49:35;16.80;99.90
39815;DHT22;25495;45.948;4.568;2022-10-16T02:52:01;16.80;99.90
39815;DHT22;25495;45.948;4.568;2022-10-16T02:54:27;16.80;99.90
39815;DHT22;25495;45.948;4.568;2022-10-16T02:56:52;16.90;99.90
39815;DHT22;25495;45.948;4.568;2022-10-16T02:59:18;16.90;99.90
39815;DHT22;25495;45.948;4.568;2022-10-16T03:01:44;17.00;99.90
39815;DHT22;25495;45.948;4.568;2022-10-16T03:06:36;16.60;99.90
39815;DHT22;25495;45.948;4.568;2022-10-16T03:09:01;16.60;99.90
39815;DHT22;25495;45.948;4.568;2022-10-16T03:11:27;16.60;99.90
39815;DHT22;25495;45.948;4.568;2022-10-16T03:13:53;16.50;99.90
39815;DHT22;25495;45.948;4.568;2022-10-16T03:16:19;16.50;99.90
39815;DHT22;25495;45.948;4.568;2022-10-16T03:18:48;16.50;99.90
39815;DHT22;25495;45.948;4.568;2022-10-16T03:21:15;16.50;99.90
39815;DHT22;25495;45.948;4.568;2022-10-16T03:23:41;16.60;99.90
39815;DHT22;25495;45.948;4.568;2022-10-16T03:26:06;16.50;99.90
39815;DHT22;25495;45.948;4.568;2022-10-16T03:28:32;16.60;99.90
39815;DHT22;25495;45.948;4.568;2022-10-16T03:30:58;16.60;99.90
39815;DHT22;25495;45.948;4.568;2022-10-16T03:33:24;16.70;99.90
39815;DHT22;25495;45.948;4.568;2022-10-16T03:35:53;16.60;99.90
39815;DHT22;25495;45.948;4.568;2022-10-16T03:38:20;16.40;99.90
39815;DHT22;25495;45.948;4.568;2022-10-16T03:40:46;16.30;99.90
39815;DHT22;25495;45.948;4.568;2022-10-16T03:43:12;16.20;99.90
39815;DHT22;25495;45.948;4.568;2022-10-16T03:45:38;16.20;99.90
39815;DHT22;25495;45.948;4.568;2022-10-16T03:48:04;16.20;99.90
39815;DHT22;25495;45.948;4.568;2022-10-16T03:50:30;16.30;99.90
39815;DHT22;25495;45.948;4.568;2022-10-16T03:52:55;16.40;99.90
39815;DHT22;25495;45.948;4.568;2022-10-16T03:55:21;16.50;99.90
39815;DHT22;25495;45.948;4.568;2022-10-16T03:57:47;16.50;99.90
39815;DHT22;25495;45.948;4.568;2022-10-16T04:00:13;16.40;99.90
39815;DHT22;25495;45.948;4.568;2022-10-16T04:02:39;16.40;99.90
39815;DHT22;25495;45.948;4.568;2022-10-16T04:05:06;16.10;99.90
39815;DHT22;25495;45.948;4.568;2022-10-16T04:07:32;16.00;99.90
39815;DHT22;25495;45.948;4.568;2022-10-16T04:09:58;15.90;99.90
39815;DHT22;25495;45.948;4.568;2022-10-16T04:12:27;16.00;99.90
39815;DHT22;25495;45.948;4.568;2022-10-16T04:14:53;15.90;99.90
39815;DHT22;25495;45.948;4.568;2022-10-16T04:17:19;15.90;99.90
39815;DHT22;25495;45.948;4.568;2022-10-16T04:19:45;15.90;99.90
39815;DHT22;25495;45.948;4.568;2022-10-16T04:22:11;15.80;99.90
39815;DHT22;25495;45.948;4.568;2022-10-16T04:24:37;15.70;99.90
39815;DHT22;25495;45.948;4.568;2022-10-16T04:27:03;15.80;99.90
39815;DHT22;25495;45.948;4.568;2022-10-16T04:29:28;15.90;99.90
39815;DHT22;25495;45.948;4.568;2022-10-16T04:31:54;15.80;99.90
39815;DHT22;25495;45.948;4.568;2022-10-16T04:34:20;15.80;99.90
39815;DHT22;25495;45.948;4.568;2022-10-16T04:36:49;15.90;99.90
39815;DHT22;25495;45.948;4.568;2022-10-16T04:39:15;16.00;99.90
39815;DHT22;25495;45.948;4.568;2022-10-16T04:41:41;16.00;99.90
39815;DHT22;25495;45.948;4.568;2022-10-16T04:44:07;16.00;99.90
39815;DHT22;25495;45.948;4.568;2022-10-16T04:46:33;16.00;99.90
39815;DHT22;25495;45.948;4.568;2022-10-16T04:48:59;15.90;99.90
39815;DHT22;25495;45.948;4.568;2022-10-16T04:51:25;15.80;99.90
39815;DHT22;25495;45.948;4.568;2022-10-16T04:53:51;15.80;99.90
39815;DHT22;25495;45.948;4.568;2022-10-16T04:56:17;15.80;99.90
39815;DHT22;25495;45.948;4.568;2022-10-16T04:58:43;15.70;99.90
39815;DHT22;25495;45.948;4.568;2022-10-16T05:01:09;15.80;99.90
39815;DHT22;25495;45.948;4.568;2022-10-16T05:03:34;15.80;99.90
39815;DHT22;25495;45.948;4.568;2022-10-16T05:06:00;15.60;99.90
39815;DHT22;25495;45.948;4.568;2022-10-16T05:08:26;15.50;99.90
39815;DHT22;25495;45.948;4.568;2022-10-16T05:10:52;15.50;99.90
39815;DHT22;25495;45.948;4.568;2022-10-16T05:13:17;15.50;99.90
39815;DHT22;25495;45.948;4.568;2022-10-16T05:15:47;15.50;99.90
39815;DHT22;25495;45.948;4.568;2022-10-16T05:18:13;15.50;99.90
39815;DHT22;25495;45.948;4.568;2022-10-16T05:20:40;15.60;99.90
39815;DHT22;25495;45.948;4.568;2022-10-16T05:23:06;15.60;99.90
39815;DHT22;25495;45.948;4.568;2022-10-16T05:25:31;15.50;99.90
39815;DHT22;25495;45.948;4.568;2022-10-16T05:27:57;15.40;99.90
39815;DHT22;25495;45.948;4.568;2022-10-16T05:30:23;15.50;99.90
39815;DHT22;25495;45.948;4.568;2022-10-16T05:32:50;15.40;99.90
39815;DHT22;25495;45.948;4.568;2022-10-16T05:35:18;15.50;99.90
39815;DHT22;25495;45.948;4.568;2022-10-16T05:37:45;15.50;99.90
39815;DHT22;25495;45.948;4.568;2022-10-16T05:40:11;15.60;99.90
39815;DHT22;25495;45.948;4.568;2022-10-16T05:42:38;15.60;99.90
39815;DHT22;25495;45.948;4.568;2022-10-16T05:45:06;15.50;99.90
39815;DHT22;25495;45.948;4.568;2022-10-16T05:47:32;15.40;99.90
39815;DHT22;25495;45.948;4.568;2022-10-16T05:49:57;15.40;99.90
39815;DHT22;25495;45.948;4.568;2022-10-16T05:52:23;15.40;99.90
39815;DHT22;25495;45.948;4.568;2022-10-16T05:54:49;15.50;99.90
39815;DHT22;25495;45.948;4.568;2022-10-16T05:57:15;15.50;99.90
39815;DHT22;25495;45.948;4.568;2022-10-16T05:59:41;15.60;99.90
39815;DHT22;25495;45.948;4.568;2022-10-16T06:02:12;15.50;99.90
39815;DHT22;25495;45.948;4.568;2022-10-16T06:04:38;15.40;99.90
39815;DHT22;25495;45.948;4.568;2022-10-16T06:07:04;15.10;99.90
39815;DHT22;25495;45.948;4.568;2022-10-16T06:09:29;14.80;99.90
39815;DHT22;25495;45.948;4.568;2022-10-16T06:11:55;14.90;99.90
39815;DHT22;25495;45.948;4.568;2022-10-16T06:14:21;15.20;99.90
39815;DHT22;25495;45.948;4.568;2022-10-16T06:16:47;15.50;99.90
39815;DHT22;25495;45.948;4.568;2022-10-16T06:19:12;15.80;99.90
39815;DHT22;25495;45.948;4.568;2022-10-16T06:21:38;15.80;99.90
39815;DHT22;25495;45.948;4.568;2022-10-16T06:24:04;15.90;99.90
39815;DHT22;25495;45.948;4.568;2022-10-16T06:26:31;16.00;99.90
39815;DHT22;25495;45.948;4.568;2022-10-16T06:28:58;16.00;99.90
39815;DHT22;25495;45.948;4.568;2022-10-16T06:31:25;16.00;99.90
39815;DHT22;25495;45.948;4.568;2022-10-16T06:33:53;15.80;99.90
39815;DHT22;25495;45.948;4.568;2022-10-16T06:36:19;16.00;99.90
39815;DHT22;25495;45.948;4.568;2022-10-16T06:38:46;16.20;99.90
39815;DHT22;25495;45.948;4.568;2022-10-16T06:41:14;16.10;99.90
39815;DHT22;25495;45.948;4.568;2022-10-16T06:43:40;16.00;99.90
39815;DHT22;25495;45.948;4.568;2022-10-16T06:46:07;16.00;99.90
39815;DHT22;25495;45.948;4.568;2022-10-16T06:48:35;15.90;99.90
39815;DHT22;25495;45.948;4.568;2022-10-16T06:51:06;15.90;99.90
39815;DHT22;25495;45.948;4.568;2022-10-16T06:53:35;15.80;99.90
39815;DHT22;25495;45.948;4.568;2022-10-16T06:58:44;15.50;99.90
39815;DHT22;25495;45.948;4.568;2022-10-16T07:01:11;15.50;99.90
39815;DHT22;25495;45.948;4.568;2022-10-16T07:03:39;15.30;99.90
39815;DHT22;25495;45.948;4.568;2022-10-16T07:06:06;15.20;99.90
39815;DHT22;25495;45.948;4.568;2022-10-16T07:08:33;15.20;99.90
39815;DHT22;25495;45.948;4.568;2022-10-16T07:11:01;15.30;99.90
39815;DHT22;25495;45.948;4.568;2022-10-16T07:13:27;15.40;99.90
39815;DHT22;25495;45.948;4.568;2022-10-16T07:15:53;15.60;99.90
39815;DHT22;25495;45.948;4.568;2022-10-16T07:18:19;15.70;99.90
39815;DHT22;25495;45.948;4.568;2022-10-16T07:20:45;15.80;99.90
39815;DHT22;25495;45.948;4.568;2022-10-16T07:23:10;15.90;99.90
39815;DHT22;25495;45.948;4.568;2022-10-16T07:25:36;15.90;99.90
39815;DHT22;25495;45.948;4.568;2022-10-16T07:28:02;16.00;99.90
39815;DHT22;25495;45.948;4.568;2022-10-16T07:30:28;16.10;99.90
39815;DHT22;25495;45.948;4.568;2022-10-16T07:32:54;16.20;99.90
39815;DHT22;25495;45.948;4.568;2022-10-16T07:35:20;16.20;99.90
39815;DHT22;25495;45.948;4.568;2022-10-16T07:37:46;16.30;99.90
39815;DHT22;25495;45.948;4.568;2022-10-16T07:40:12;16.30;99.90
39815;DHT22;25495;45.948;4.568;2022-10-16T07:42:38;16.30;99.90
39815;DHT22;25495;45.948;4.568;2022-10-16T07:45:04;16.30;99.90
39815;DHT22;25495;45.948;4.568;2022-10-16T07:47:30;16.30;99.90
39815;DHT22;25495;45.948;4.568;2022-10-16T07:52:22;16.40;99.90
39815;DHT22;25495;45.948;4.568;2022-10-16T07:54:47;16.40;99.90
39815;DHT22;25495;45.948;4.568;2022-10-16T07:57:13;16.60;99.90
39815;DHT22;25495;45.948;4.568;2022-10-16T07:59:45;16.80;99.90
39815;DHT22;25495;45.948;4.568;2022-10-16T08:02:12;17.30;99.90
39815;DHT22;25495;45.948;4.568;2022-10-16T08:04:38;17.70;99.90
39815;DHT22;25495;45.948;4.568;2022-10-16T08:07:03;18.00;99.90
39815;DHT22;25495;45.948;4.568;2022-10-16T08:09:29;18.40;99.90
39815;DHT22;25495;45.948;4.568;2022-10-16T08:11:55;18.70;99.90
39815;DHT22;25495;45.948;4.568;2022-10-16T08:14:21;18.70;99.90
39815;DHT22;25495;45.948;4.568;2022-10-16T08:16:47;18.30;99.90
39815;DHT22;25495;45.948;4.568;2022-10-16T08:19:12;18.60;99.90
39815;DHT22;25495;45.948;4.568;2022-10-16T08:21:39;18.90;99.90
39815;DHT22;25495;45.948;4.568;2022-10-16T08:24:05;19.00;99.90
39815;DHT22;25495;45.948;4.568;2022-10-16T08:26:32;19.20;99.90
39815;DHT22;25495;45.948;4.568;2022-10-16T08:28:59;19.30;99.90
39815;DHT22;25495;45.948;4.568;2022-10-16T08:31:26;19.50;99.90
39815;DHT22;25495;45.948;4.568;2022-10-16T08:33:54;19.60;99.90
39815;DHT22;25495;45.948;4.568;2022-10-16T08:36:22;20.00;99.90
39815;DHT22;25495;45.948;4.568;2022-10-16T08:38:49;20.30;99.90
39815;DHT22;25495;45.948;4.568;2022-10-16T08:44:28;20.50;99.90
39815;DHT22;25495;45.948;4.568;2022-10-16T08:47:17;20.80;99.90
39815;DHT22;25495;45.948;4.568;2022-10-16T08:49:56;20.90;99.90
39815;DHT22;25495;45.948;4.568;2022-10-16T08:52:22;21.10;99.90
39815;DHT22;25495;45.948;4.568;2022-10-16T08:54:51;21.10;99.90
39815;DHT22;25495;45.948;4.568;2022-10-16T08:57:21;21.10;99.90
39815;DHT22;25495;45.948;4.568;2022-10-16T08:59:47;21.20;99.90
39815;DHT22;25495;45.948;4.568;2022-10-16T09:10:29;20.40;99.90
39815;DHT22;25495;45.948;4.568;2022-10-16T09:13:08;20.40;99.90
39815;DHT22;25495;45.948;4.568;2022-10-16T09:16:14;20.50;99.90
39815;DHT22;25495;45.948;4.568;2022-10-16T09:21:38;20.40;99.90
39815;DHT22;25495;45.948;4.568;2022-10-16T09:24:15;20.50;99.90
39815;DHT22;25495;45.948;4.568;2022-10-16T09:26:42;20.50;99.90
39815;DHT22;25495;45.948;4.568;2022-10-16T09:29:18;20.40;99.90
39815;DHT22;25495;45.948;4.568;2022-10-16T09:31:51;20.40;99.90
39815;DHT22;25495;45.948;4.568;2022-10-16T09:35:09;20.40;99.90
39815;DHT22;25495;45.948;4.568;2022-10-16T09:37:12;20.60;99.90
39815;DHT22;25495;45.948;4.568;2022-10-16T09:39:48;20.90;99.90
39815;DHT22;25495;45.948;4.568;2022-10-16T09:42:22;21.30;99.90
39815;DHT22;25495;45.948;4.568;2022-10-16T09:44:53;21.30;99.90
39815;DHT22;25495;45.948;4.568;2022-10-16T09:47:29;21.10;99.90
39815;DHT22;25495;45.948;4.568;2022-10-16T09:49:59;21.00;99.90
39815;DHT22;25495;45.948;4.568;2022-10-16T09:52:28;20.80;99.90
39815;DHT22;25495;45.948;4.568;2022-10-16T09:54:58;20.70;99.90
39815;DHT22;25495;45.948;4.568;2022-10-16T09:57:25;20.70;99.90
39815;DHT22;25495;45.948;4.568;2022-10-16T09:59:53;20.70;99.90
39815;DHT22;25495;45.948;4.568;2022-10-16T10:04:53;21.20;99.90
39815;DHT22;25495;45.948;4.568;2022-10-16T10:07:35;21.20;99.90
39815;DHT22;25495;45.948;4.568;2022-10-16T10:10:05;21.40;99.90
39815;DHT22;25495;45.948;4.568;2022-10-16T10:12:33;21.40;99.90
39815;DHT22;25495;45.948;4.568;2022-10-16T10:15:11;21.70;99.90
39815;DHT22;25495;45.948;4.568;2022-10-16T10:17:55;21.70;99.90
39815;DHT22;25495;45.948;4.568;2022-10-16T10:20:28;21.80;99.90
39815;DHT22;25495;45.948;4.568;2022-10-16T10:22:55;21.70;99.90
39815;DHT22;25495;45.948;4.568;2022-10-16T10:39:30;22.20;99.90
39815;DHT22;25495;45.948;4.568;2022-10-16T10:42:27;22.20;99.90
39815;DHT22;25495;45.948;4.568;2022-10-16T10:45:23;22.10;99.90
39815;DHT22;25495;45.948;4.568;2022-10-16T10:50:49;22.00;99.90
39815;DHT22;25495;45.948;4.568;2022-10-16T10:56:05;22.10;99.90
39815;DHT22;25495;45.948;4.568;2022-10-16T10:58:42;22.10;99.90
39815;DHT22;25495;45.948;4.568;2022-10-16T11:01:16;22.20;99.90
39815;DHT22;25495;45.948;4.568;2022-10-16T11:07:20;22.30;99.90
39815;DHT22;25495;45.948;4.568;2022-10-16T11:09:51;22.50;99.90
39815;DHT22;25495;45.948;4.568;2022-10-16T11:12:29;22.50;99.90
39815;DHT22;25495;45.948;4.568;2022-10-16T11:15:14;22.60;99.90
39815;DHT22;25495;45.948;4.568;2022-10-16T11:17:55;22.50;99.90
39815;DHT22;25495;45.948;4.568;2022-10-16T11:20:34;22.40;99.90
39815;DHT22;25495;45.948;4.568;2022-10-16T11:23:18;22.60;99.90
39815;DHT22;25495;45.948;4.568;2022-10-16T11:25:48;22.40;99.90
39815;DHT22;25495;45.948;4.568;2022-10-16T11:28:37;22.60;99.90
39815;DHT22;25495;45.948;4.568;2022-10-16T11:34:38;22.60;99.90
39815;DHT22;25495;45.948;4.568;2022-10-16T11:37:17;22.80;99.90
39815;DHT22;25495;45.948;4.568;2022-10-16T11:39:45;22.60;99.90
39815;DHT22;25495;45.948;4.568;2022-10-16T11:47:51;22.90;99.90
39815;DHT22;25495;45.948;4.568;2022-10-16T11:50:34;22.90;99.90
39815;DHT22;25495;45.948;4.568;2022-10-16T11:55:57;23.00;99.90
39815;DHT22;25495;45.948;4.568;2022-10-16T12:03:55;22.90;99.90
39815;DHT22;25495;45.948;4.568;2022-10-16T12:09:27;22.90;99.90
39815;DHT22;25495;45.948;4.568;2022-10-16T12:11:55;22.80;99.90
39815;DHT22;25495;45.948;4.568;2022-10-16T12:16:55;22.90;99.90
39815;DHT22;25495;45.948;4.568;2022-10-16T12:19:23;22.80;99.90
39815;DHT22;25495;45.948;4.568;2022-10-16T12:21:51;22.90;99.90
39815;DHT22;25495;45.948;4.568;2022-10-16T12:24:36;22.90;99.90
39815;DHT22;25495;45.948;4.568;2022-10-16T12:27:06;22.80;99.90
39815;DHT22;25495;45.948;4.568;2022-10-16T12:29:42;22.80;99.90
39815;DHT22;25495;45.948;4.568;2022-10-16T12:34:57;22.60;99.90
39815;DHT22;25495;45.948;4.568;2022-10-16T12:37:34;22.60;99.90
39815;DHT22;25495;45.948;4.568;2022-10-16T12:40:28;22.60;99.90
39815;DHT22;25495;45.948;4.568;2022-10-16T12:42:55;22.70;99.90
39815;DHT22;25495;45.948;4.568;2022-10-16T12:45:32;22.40;99.90
39815;DHT22;25495;45.948;4.568;2022-10-16T12:48:00;22.40;99.90
39815;DHT22;25495;45.948;4.568;2022-10-16T12:50:31;22.40;99.90
39815;DHT22;25495;45.948;4.568;2022-10-16T12:52:58;22.70;99.90
39815;DHT22;25495;45.948;4.568;2022-10-16T12:55:25;22.70;99.90
39815;DHT22;25495;45.948;4.568;2022-10-16T13:03:59;22.90;99.90
39815;DHT22;25495;45.948;4.568;2022-10-16T13:06:49;22.80;99.90
39815;DHT22;25495;45.948;4.568;2022-10-16T13:12:16;22.80;99.90
39815;DHT22;25495;45.948;4.568;2022-10-16T13:15:11;22.80;99.90
39815;DHT22;25495;45.948;4.568;2022-10-16T13:18:03;22.70;99.90
39815;DHT22;25495;45.948;4.568;2022-10-16T13:26:39;22.40;99.90
39815;DHT22;25495;45.948;4.568;2022-10-16T13:29:07;22.40;99.90
39815;DHT22;25495;45.948;4.568;2022-10-16T13:31:33;22.50;99.90
39815;DHT22;25495;45.948;4.568;2022-10-16T13:34:00;22.50;99.90
39815;DHT22;25495;45.948;4.568;2022-10-16T13:36:34;22.50;99.90
39815;DHT22;25495;45.948;4.568;2022-10-16T13:39:14;22.50;99.90
39815;DHT22;25495;45.948;4.568;2022-10-16T13:41:43;22.60;99.90
39815;DHT22;25495;45.948;4.568;2022-10-16T13:44:18;22.50;99.90
39815;DHT22;25495;45.948;4.568;2022-10-16T13:46:44;22.50;99.90
39815;DHT22;25495;45.948;4.568;2022-10-16T13:49:16;22.70;99.90
39815;DHT22;25495;45.948;4.568;2022-10-16T13:51:54;22.70;99.90
39815;DHT22;25495;45.948;4.568;2022-10-16T13:54:20;22.60;99.90
39815;DHT22;25495;45.948;4.568;2022-10-16T13:56:46;22.60;99.90
39815;DHT22;25495;45.948;4.568;2022-10-16T13:59:35;22.60;99.90
39815;DHT22;25495;45.948;4.568;2022-10-16T14:02:20;22.60;99.90
39815;DHT22;25495;45.948;4.568;2022-10-16T14:04:48;22.50;99.90
39815;DHT22;25495;45.948;4.568;2022-10-16T14:07:26;22.40;99.90
39815;DHT22;25495;45.948;4.568;2022-10-16T14:09:53;22.40;99.90
39815;DHT22;25495;45.948;4.568;2022-10-16T14:12:20;22.20;99.90
39815;DHT22;25495;45.948;4.568;2022-10-16T14:14:50;22.20;99.90
39815;DHT22;25495;45.948;4.568;2022-10-16T14:19:48;22.00;99.90
39815;DHT22;25495;45.948;4.568;2022-10-16T14:22:30;22.00;99.90
39815;DHT22;25495;45.948;4.568;2022-10-16T14:28:31;21.90;99.90
39815;DHT22;25495;45.948;4.568;2022-10-16T14:30:34;21.90;99.90
39815;DHT22;25495;45.948;4.568;2022-10-16T14:33:05;21.90;99.90
39815;DHT22;25495;45.948;4.568;2022-10-16T14:35:37;21.70;99.90
39815;DHT22;25495;45.948;4.568;2022-10-16T14:38:05;21.60;99.90
39815;DHT22;25495;45.948;4.568;2022-10-16T14:40:34;21.50;99.90
39815;DHT22;25495;45.948;4.568;2022-10-16T14:43:02;21.50;99.90
39815;DHT22;25495;45.948;4.568;2022-10-16T14:45:30;21.40;99.90
39815;DHT22;25495;45.948;4.568;2022-10-16T14:48:14;21.40;99.90
39815;DHT22;25495;45.948;4.568;2022-10-16T14:50:42;21.30;99.90
39815;DHT22;25495;45.948;4.568;2022-10-16T14:53:14;21.20;99.90
39815;DHT22;25495;45.948;4.568;2022-10-16T14:55:41;21.10;99.90
39815;DHT22;25495;45.948;4.568;2022-10-16T14:58:21;21.10;99.90
39815;DHT22;25495;45.948;4.568;2022-10-16T15:00:48;21.20;99.90
39815;DHT22;25495;45.948;4.568;2022-10-16T15:03:14;21.20;99.90
39815;DHT22;25495;45.948;4.568;2022-10-16T15:05:40;21.20;99.90
39815;DHT22;25495;45.948;4.568;2022-10-16T15:08:06;21.30;99.90
39815;DHT22;25495;45.948;4.568;2022-10-16T15:10:38;21.30;99.90
39815;DHT22;25495;45.948;4.568;2022-10-16T15:13:04;21.30;99.90
39815;DHT22;25495;45.948;4.568;2022-10-16T15:15:36;21.20;99.90
39815;DHT22;25495;45.948;4.568;2022-10-16T15:18:03;21.20;99.90
39815;DHT22;25495;45.948;4.568;2022-10-16T15:20:33;21.20;99.90
39815;DHT22;25495;45.948;4.568;2022-10-16T15:23:01;21.10;99.90
39815;DHT22;25495;45.948;4.568;2022-10-16T15:25:39;21.10;99.90
39815;DHT22;25495;45.948;4.568;2022-10-16T15:28:09;21.10;99.90
39815;DHT22;25495;45.948;4.568;2022-10-16T15:30:37;21.00;99.90
39815;DHT22;25495;45.948;4.568;2022-10-16T15:33:09;20.90;99.90
39815;DHT22;25495;45.948;4.568;2022-10-16T15:35:40;20.90;99.90
39815;DHT22;25495;45.948;4.568;2022-10-16T15:38:09;20.80;99.90
39815;DHT22;25495;45.948;4.568;2022-10-16T15:40:36;20.70;99.90
39815;DHT22;25495;45.948;4.568;2022-10-16T15:43:05;20.70;99.90
39815;DHT22;25495;45.948;4.568;2022-10-16T15:45:31;20.60;99.90
39815;DHT22;25495;45.948;4.568;2022-10-16T15:47:57;20.60;99.90
39815;DHT22;25495;45.948;4.568;2022-10-16T15:50:23;20.60;99.90
39815;DHT22;25495;45.948;4.568;2022-10-16T15:52:50;20.60;99.90
39815;DHT22;25495;45.948;4.568;2022-10-16T15:55:16;20.60;99.90
39815;DHT22;25495;45.948;4.568;2022-10-16T15:57:45;20.60;99.90
39815;DHT22;25495;45.948;4.568;2022-10-16T16:00:14;20.50;99.90
39815;DHT22;25495;45.948;4.568;2022-10-16T16:02:43;20.50;99.90
39815;DHT22;25495;45.948;4.568;2022-10-16T16:05:11;20.50;99.90
39815;DHT22;25495;45.948;4.568;2022-10-16T16:07:38;20.50;99.90
39815;DHT22;25495;45.948;4.568;2022-10-16T16:10:07;20.50;99.90
39815;DHT22;25495;45.948;4.568;2022-10-16T16:12:35;20.50;99.90
39815;DHT22;25495;45.948;4.568;2022-10-16T16:15:03;20.40;99.90
39815;DHT22;25495;45.948;4.568;2022-10-16T16:17:31;20.30;99.90
39815;DHT22;25495;45.948;4.568;2022-10-16T16:19:57;20.30;99.90
39815;DHT22;25495;45.948;4.568;2022-10-16T16:22:23;20.20;99.90
39815;DHT22;25495;45.948;4.568;2022-10-16T16:24:49;20.20;99.90
39815;DHT22;25495;45.948;4.568;2022-10-16T16:27:15;20.10;99.90
39815;DHT22;25495;45.948;4.568;2022-10-16T16:29:41;20.10;99.90
39815;DHT22;25495;45.948;4.568;2022-10-16T16:32:07;20.00;99.90
39815;DHT22;25495;45.948;4.568;2022-10-16T16:34:34;20.00;99.90
39815;DHT22;25495;45.948;4.568;2022-10-16T16:37:01;19.90;99.90
39815;DHT22;25495;45.948;4.568;2022-10-16T16:39:27;19.80;99.90
39815;DHT22;25495;45.948;4.568;2022-10-16T16:41:55;19.80;99.90
39815;DHT22;25495;45.948;4.568;2022-10-16T16:44:21;19.80;99.90
39815;DHT22;25495;45.948;4.568;2022-10-16T16:46:47;19.80;99.90
39815;DHT22;25495;45.948;4.568;2022-10-16T16:49:13;19.60;99.90
39815;DHT22;25495;45.948;4.568;2022-10-16T16:51:40;19.60;99.90
39815;DHT22;25495;45.948;4.568;2022-10-16T16:54:07;19.50;99.90
39815;DHT22;25495;45.948;4.568;2022-10-16T16:56:34;19.40;99.90
39815;DHT22;25495;45.948;4.568;2022-10-16T16:59:01;19.30;99.90
39815;DHT22;25495;45.948;4.568;2022-10-16T17:01:28;19.30;99.90
39815;DHT22;25495;45.948;4.568;2022-10-16T17:03:55;19.30;99.90
39815;DHT22;25495;45.948;4.568;2022-10-16T17:06:24;19.20;99.90
39815;DHT22;25495;45.948;4.568;2022-10-16T17:08:51;19.30;99.90
39815;DHT22;25495;45.948;4.568;2022-10-16T17:11:22;19.30;99.90
39815;DHT22;25495;45.948;4.568;2022-10-16T17:13:50;19.20;99.90
39815;DHT22;25495;45.948;4.568;2022-10-16T17:16:17;19.20;99.90
39815;DHT22;25495;45.948;4.568;2022-10-16T17:18:43;19.10;99.90
39815;DHT22;25495;45.948;4.568;2022-10-16T17:21:09;19.10;99.90
39815;DHT22;25495;45.948;4.568;2022-10-16T17:23:37;19.10;99.90
39815;DHT22;25495;45.948;4.568;2022-10-16T17:26:10;19.00;99.90
39815;DHT22;25495;45.948;4.568;2022-10-16T17:28:37;18.90;99.90
39815;DHT22;25495;45.948;4.568;2022-10-16T17:31:18;18.90;99.90
39815;DHT22;25495;45.948;4.568;2022-10-16T17:33:45;18.90;99.90
39815;DHT22;25495;45.948;4.568;2022-10-16T17:36:11;18.80;99.90